»·PEaware :: N22ST KTUS-KPHX

N22ST :: KTUS-KPHX

FLIGHT INFORMATION

Flight Status: Arrived
Operator: Privately registered:
United States
More flights under this callsign
Pilot: Liam T. (43559)
Aircraft: CIRRUS SR-22
(SR22)
More flights by this aircraft type
Origin: KTUS Tucson Intl
United States
Destination: KPHX Phoenix Sky Harbor Intl
United States
More flights between these airports :: More routes between these airports
Route: TUS
File this flight plan on PilotEdge
Remarks:
Altitude:
(Current/Filed)
6,500ft
Speed:
(Current/Filed)
0kts
Departed: 25-Oct-23 09:59 AM
Arrived: 25-Oct-23 10:55 AM
Distance/Time
Traveled:
96nm/0:56
Distance/Time
To Go:
Arrived

Flight Plot

Page will automatically refresh every two minutes.

Flight plan parsing failed; only flown route is shown


Map Options




Map Legend


Flown Route
Filed Route
Departure Airport
Arrival Airport
Navaid (VOR, NDB)
Fix

Horizontal Profiles

Position Reports

Time Latitude Longitude Heading Altitude Ground
Speed
25-Oct-23 09:42 32.125328 -110.945467 224 2570ft 0kts
25-Oct-23 09:43 32.125328 -110.945467 224 2570ft 0kts
25-Oct-23 09:44 32.125328 -110.945467 224 2570ft 0kts
25-Oct-23 09:45 32.125328 -110.945467 224 2570ft 0kts
25-Oct-23 09:46 32.125328 -110.945467 224 2570ft 0kts
25-Oct-23 09:47 32.125328 -110.945467 224 2570ft 0kts
25-Oct-23 09:48 32.125328 -110.945467 224 2570ft 0kts
25-Oct-23 09:49 32.125692 -110.945457 28 2570ft 0kts
25-Oct-23 09:50 32.125661 -110.946608 226 2568ft 10kts
25-Oct-23 09:51 32.124559 -110.947903 226 2570ft 0kts
25-Oct-23 09:52 32.124559 -110.947903 226 2570ft 0kts
25-Oct-23 09:53 32.124559 -110.947903 226 2570ft 0kts
25-Oct-23 09:54 32.124559 -110.947903 226 2570ft 0kts
25-Oct-23 09:55 32.124559 -110.947903 226 2570ft 0kts
25-Oct-23 09:56 32.124559 -110.947903 226 2570ft 0kts
25-Oct-23 09:57 32.124559 -110.947903 226 2570ft 0kts
25-Oct-23 09:58 32.120058 -110.943947 135 2588ft 91kts
25-Oct-23 09:59 32.108366 -110.918155 41 3843ft 116kts
25-Oct-23 10:00 32.133357 -110.937092 298 5159ft 122kts
25-Oct-23 10:01 32.134387 -110.973627 296 6468ft 120kts
25-Oct-23 10:02 32.170603 -110.972478 335 6757ft 158kts
25-Oct-23 10:03 32.203553 -111.008586 285 6618ft 181kts
25-Oct-23 10:04 32.235273 -111.053538 319 6491ft 179kts
25-Oct-23 10:05 32.272125 -111.090097 320 6438ft 165kts
25-Oct-23 10:06 32.306762 -111.124508 320 6442ft 161kts
25-Oct-23 10:07 32.341026 -111.158547 320 6446ft 161kts
25-Oct-23 10:08 32.375176 -111.192511 320 6502ft 158kts
25-Oct-23 10:09 32.409223 -111.226394 320 6502ft 160kts
25-Oct-23 10:10 32.443356 -111.260387 320 6504ft 160kts
25-Oct-23 10:11 32.477469 -111.294387 320 6522ft 160kts
25-Oct-23 10:12 32.511691 -111.328531 320 6522ft 160kts
25-Oct-23 10:13 32.545952 -111.362725 320 6523ft 161kts
25-Oct-23 10:14 32.580165 -111.396912 319 6523ft 160kts
25-Oct-23 10:15 32.614293 -111.431024 320 6515ft 160kts
25-Oct-23 10:16 32.648523 -111.465264 319 6507ft 160kts
25-Oct-23 10:17 32.682721 -111.499514 319 6495ft 161kts
25-Oct-23 10:18 32.716918 -111.533774 319 6487ft 160kts
25-Oct-23 10:19 32.751070 -111.568024 319 6479ft 160kts
25-Oct-23 10:20 32.785287 -111.602366 319 6483ft 160kts
25-Oct-23 10:21 32.819350 -111.636578 319 6487ft 160kts
25-Oct-23 10:22 32.853430 -111.670844 319 6492ft 159kts
25-Oct-23 10:23 32.881143 -111.698769 319 6489ft 113kts
25-Oct-23 10:24 32.904802 -111.722595 319 6489ft 110kts
25-Oct-23 10:25 32.910050 -111.704065 116 6508ft 107kts
25-Oct-23 10:26 32.898005 -111.670526 111 6506ft 112kts
25-Oct-23 10:27 32.887180 -111.636026 109 6501ft 111kts
25-Oct-23 10:28 32.877339 -111.601150 108 6494ft 111kts
25-Oct-23 10:29 32.868461 -111.566490 105 6490ft 109kts
25-Oct-23 10:30 32.877501 -111.550636 316 6493ft 103kts
25-Oct-23 10:31 32.899166 -111.573374 317 6500ft 105kts
25-Oct-23 10:32 32.922443 -111.598024 317 6504ft 133kts
25-Oct-23 10:33 32.952592 -111.631979 293 6507ft 157kts
25-Oct-23 10:34 32.957022 -111.684025 275 6507ft 159kts
25-Oct-23 10:35 32.960956 -111.736903 275 6507ft 161kts
25-Oct-23 10:36 32.971274 -111.787747 308 6510ft 160kts
25-Oct-23 10:37 33.004507 -111.823022 319 6530ft 160kts
25-Oct-23 10:38 33.038617 -111.857448 319 6528ft 160kts
25-Oct-23 10:39 33.072821 -111.891997 319 6427ft 166kts
25-Oct-23 10:40 33.109980 -111.929549 319 5725ft 178kts
25-Oct-23 10:41 33.146597 -111.966617 319 5496ft 157kts
25-Oct-23 10:42 33.174112 -111.994527 318 5492ft 111kts
25-Oct-23 10:43 33.196047 -112.016803 317 5490ft 96kts
25-Oct-23 10:44 33.217829 -112.038877 319 5407ft 126kts
25-Oct-23 10:45 33.247643 -112.069002 318 4713ft 149kts
25-Oct-23 10:46 33.277600 -112.099445 318 4479ft 127kts
25-Oct-23 10:47 33.307255 -112.129073 325 3735ft 149kts
25-Oct-23 10:48 33.346517 -112.148140 351 2848ft 145kts
25-Oct-23 10:49 33.353507 -112.118853 87 2855ft 93kts
25-Oct-23 10:50 33.354330 -112.083657 89 2904ft 119kts
25-Oct-23 10:51 33.376854 -112.061231 9 2898ft 112kts
25-Oct-23 10:52 33.406211 -112.054947 21 2878ft 92kts
25-Oct-23 10:53 33.427678 -112.042021 65 2286ft 81kts
25-Oct-23 10:54 33.428787 -112.016536 91 1124ft 26kts
25-Oct-23 10:55 33.427892 -112.011028 223 1123ft 0kts
25-Oct-23 10:56 33.427754 -112.013811 268 1125ft 19kts
25-Oct-23 10:57 33.427768 -112.020167 269 1123ft 17kts
25-Oct-23 10:58 33.427020 -112.023940 136 1124ft 8kts
25-Oct-23 10:59 33.425918 -112.021888 176 1125ft 7kts
25-Oct-23 11:00 33.425251 -112.021571 82 1125ft 0kts
25-Oct-23 11:02 33.425251 -112.021571 82 1125ft 0kts
25-Oct-23 11:03 33.425251 -112.021571 82 1125ft 0kts
25-Oct-23 11:04 33.425251 -112.021571 82 1125ft 0kts
25-Oct-23 11:05 33.425251 -112.021571 82 1125ft 0kts
25-Oct-23 11:06 33.425251 -112.021571 82 1125ft 0kts
25-Oct-23 11:07 33.425251 -112.021571 82 1125ft 0kts
25-Oct-23 11:08 33.425251 -112.021571 82 1125ft 0kts
25-Oct-23 11:09 33.425251 -112.021571 82 1125ft 0kts
25-Oct-23 11:10 33.425251 -112.021571 82 1125ft 0kts

Navigation Log

Ident Type
Flight plan parsing failed, navigation log unavailable